Storrs Mansfield, CT (06268)

4:59 AM EDT on July 30, 2015 (GMT -0400)
UConn | | Change Station
CLOSE
Current Station
Personal Weather Station
Location: Mansfield, CT
Elevation: 367 ft
Nearby Weather Stations

Elev 367 ft 41.79 °N, 72.28 °W | Updated 4 minutes ago

Clear
Clear
63.9 °F
Feels Like 63.9 °F
N
0.0
Wind Variable Wind from ESE

Today
High -- | Low -- °F
--% Chance of Precip.
Yesterday
High -- | Low -- °F
Precip. -- in
5:40 AM 8:09 PM
Waxing Gibbous, 98% visible
Pressure 29.91 in
Visibility 7.0 miles
Clouds Clear
Dew Point 64 °F
Humidity 99%
Rainfall 0.00 in
Snow Depth Not available.
UV 0 out of 12
Pollen 7.20 out of 12
Air Quality Not available.
Flu Activity Not available.
METAR KIJD 300852Z AUTO 00000KT 7SM CLR 21/19 A2991 RMK AO2 SLP126 T02060189 55003

More Conditions Fewer Conditions

Pressure 29.91 in
Visibility 7.0 miles
Clouds Clear
Dew Point 64 °F
Humidity 99%
Rainfall 0.00 in
Snow Depth Not available.
UV 0 out of 12
Pollen 7.20 out of 12
Air Quality Not available.
Flu Activity Not available.
METAR KIJD 300852Z AUTO 00000KT 7SM CLR 21/19 A2991 RMK AO2 SLP126 T02060189 55003

More Conditions Fewer Conditions

10-Day Weather Forecast

×

Almanac

Astronomy

Jul. 30, 2015 Rise Set
Actual Time
Civil Twilight
Nautical Twilight
Astronomical Twilight
Moon
Length of Visible Light
Length of Day
Tomorrow will be .
, % of the Moon is Illuminated

Today's Extremes

State Highs State Lows

Community

WunderPhotos

Upload Photos

1,842,315 photos uploaded!

WunderBlogs® & News

Nearby

Air Quality

  Air Quality AQ Index Pollutant
Not available.

Snow Depth

Station Depth Elevation

Earthquake Activity

City Distance Mag. Time & Date
Minimum magnitude displayed is 2.5.

Coastal Water Temperatures

Place Temperature

Stations

Nearby Weather Stations

Station Location Temp. Windchill Dew Point Humidity Wind Precip. Elev Updated Type